Aérodrome :
LOGIN :

S'inscrire | Disclaimer

   EN    FR    IT 

 










Légende :    VFR   VFR Marginal   IFR   IFR Intensif   IFR Très Intensif
Visi : 
Plafond : 
>= 8 km
>= 3000ft
5 à 8 km
1000 à 3000 ft
1500m à 5 km
500 à 1000 ft
800 à 1500m
200 à 500 ft
< 800m
< 200 ft
Symboles :   Orages  Brouillard  Fortes neiges  Fortes précipitations  Vent > 20 kt
SIGMETs :   Divers  Orages  Givrage  Turbulence  Onde Orograph.  Cendres Volcan.






- Altitude de l'aérodrome : 80 ft
- Code IATA : LPL


EGGP - Liverpool John Lennon

DERNIER METAR :
  • 142350Z 35011KT 9999 -RA BKN020 06/04 Q1008

METARs EXPIRÉS :
  • 142320Z 34009KT 9999 -RA BKN022 06/05 Q1008
  • 142250Z 36011KT 9999 BKN023 06/05 Q1008
  • 142220Z 01010KT 9999 -RA SCT016 BKN021 06/05 Q1007
  • 142150Z 02011KT 8000 -RA SCT017 BKN021 06/05 Q1007
  • 142120Z 02011KT 9999 -RA SCT016 BKN021 06/04 Q1007
  • 142050Z 01015KT 9999 -RA SCT017 BKN022 07/05 Q1007

TAF TAF EGGP
Valide du 15 à 00h jusqu'au 16 à 00h UTC


142304Z 1500/1524 36009KT 9999 FEW015 SCT025
PROB30
TEMPO 1500/1512 8000 -RA BKN014
PROB40
TEMPO 1523/1524 8000 -RA BKN010
ATIS : +44 151 907 2000 (option 5 or ext 5150)
Météo : +44 871 750 5150



MET'MAP, la Météo Aéronautique d'un coup d'oeil ! - Copyright ORBIFLY Décembre 2007 - Disclaimer

ORBIFLY MET'MAP TEAM :

Programmation & Développement : Alexandra Zaïnal
Conception & Développement : Baudouin d'Aumeries
Co-Programmation & Développement : Marc-Olivier Méhu
Soutien technique & logistique : Manuel Goepfert

Contact : metmap@orbifly.com




SOURCES & CREDITS :

   NOAA